Time;durP1;ratioP1;P1;durP2;ratioP2;P2;SDS_P1;SDS_P2;PMS_P1;PMS_P2;Temp;Humidity;BMP_temperature;BMP_pressure;BME280_temperature;BME280_humidity;BME280_pressure;Samples;Min_cycle;Max_cycle;Signal;HPM_P1;HPM_P2
2022/04/21 00:00:07;;;;;;;19.50;15.68;;;;;;;8.72;75.27;99429.19;5110500;28;20105;-79
2022/04/21 00:02:33;;;;;;;16.10;14.40;;;;;;;8.76;75.50;99429.81;5110095;28;20047;-80
2022/04/21 00:04:59;;;;;;;16.52;14.18;;;;;;;8.60;75.56;99419.38;5094945;28;20115;-80
2022/04/21 00:07:26;;;;;;;17.45;15.32;;;;;;;8.58;75.84;99408.00;5094601;28;20076;-80
2022/04/21 00:09:52;;;;;;;17.85;15.57;;;;;;;8.68;75.49;99416.19;5076152;28;20483;-79
2022/04/21 00:12:17;;;;;;;18.30;15.95;;;;;;;8.55;75.97;99413.53;5092886;28;20036;-79
2022/04/21 00:14:44;;;;;;;19.85;15.82;;;;;;;8.52;76.43;99414.59;5094127;28;20048;-79
2022/04/21 00:17:10;;;;;;;19.40;16.17;;;;;;;8.52;76.45;99422.59;5095417;28;20131;-81
2022/04/21 00:19:37;;;;;;;21.63;17.42;;;;;;;8.55;76.19;99437.53;5094436;28;20481;-79
2022/04/21 00:24:49;;;;;;;17.58;15.68;;;;;;;8.61;75.88;99436.22;5079661;28;20105;-79
2022/04/21 00:27:16;;;;;;;18.70;14.70;;;;;;;8.63;75.72;99431.66;5112155;28;20043;-79
2022/04/21 00:29:45;;;;;;;15.93;14.23;;;;;;;8.63;76.04;99429.00;5093568;28;20046;-78
2022/04/21 00:32:12;;;;;;;19.80;14.82;;;;;;;8.65;75.66;99427.94;5092977;28;20387;-80
2022/04/21 00:34:38;;;;;;;15.95;13.30;;;;;;;8.62;75.55;99427.28;5075982;28;20491;-80
2022/04/21 00:37:04;;;;;;;18.65;14.50;;;;;;;8.61;75.47;99425.56;5109730;28;20051;-80
2022/04/21 00:39:31;;;;;;;18.50;15.50;;;;;;;8.47;76.05;99419.41;5059395;28;20090;-81
2022/04/21 00:42:00;;;;;;;18.15;15.98;;;;;;;8.50;75.95;99424.53;5075897;28;20040;-80
2022/04/21 00:44:27;;;;;;;25.70;19.20;;;;;;;8.40;76.20;99417.28;5093844;28;20056;-80
2022/04/21 00:46:55;;;;;;;23.75;18.38;;;;;;;8.30;76.66;99411.72;5075810;28;20046;-82
2022/04/21 00:49:22;;;;;;;22.40;19.10;;;;;;;8.40;76.26;99428.78;5092578;28;20048;-82
2022/04/21 00:51:50;;;;;;;23.90;19.45;;;;;;;8.41;75.94;99414.50;5075599;28;20048;-79
2022/04/21 00:54:17;;;;;;;24.38;20.45;;;;;;;8.37;75.94;99423.66;5075730;28;20068;-80
2022/04/21 00:56:44;;;;;;;22.63;19.63;;;;;;;8.40;76.09;99426.13;5092509;28;20084;-82
2022/04/21 00:59:11;;;;;;;26.80;21.20;;;;;;;8.40;75.67;99415.47;5075653;28;20471;-81
2022/04/21 01:04:26;;;;;;;25.23;19.92;;;;;;;8.34;75.82;99415.84;5092693;28;20518;-80
2022/04/21 01:06:52;;;;;;;22.02;18.42;;;;;;;8.39;75.45;99427.09;5093866;28;20047;-80
2022/04/21 01:09:19;;;;;;;26.52;20.27;;;;;;;8.45;75.68;99421.31;5075329;28;20040;-78
2022/04/21 01:11:46;;;;;;;23.50;19.27;;;;;;;8.49;75.20;99411.31;5093607;28;20040;-80
2022/04/21 01:14:14;;;;;;;25.95;20.23;;;;;;;8.47;75.55;99418.56;5093401;28;20054;-78
2022/04/21 01:16:40;;;;;;;29.95;21.15;;;;;;;8.34;75.68;99421.19;5092175;28;20042;-79
2022/04/21 01:19:06;;;;;;;27.45;21.98;;;;;;;8.38;75.66;99416.53;5092286;28;20032;-78
2022/04/21 01:21:32;;;;;;;25.95;21.65;;;;;;;8.28;75.69;99411.81;5092274;28;20129;-80
2022/04/21 01:23:58;;;;;;;28.35;21.83;;;;;;;8.42;75.25;99424.19;5109269;28;20078;-80
2022/04/21 01:26:28;;;;;;;28.55;21.90;;;;;;;8.24;75.28;99406.81;5075905;28;20050;-80
2022/04/21 01:28:55;;;;;;;26.42;19.90;;;;;;;8.26;74.96;99426.19;5058415;28;20058;-80
2022/04/21 01:31:24;;;;;;;22.83;19.48;;;;;;;8.16;75.06;99431.31;5075476;28;20463;-80
2022/04/21 01:33:50;;;;;;;27.77;18.38;;;;;;;8.01;75.14;99438.53;5109150;28;20040;-79
2022/04/21 01:36:17;;;;;;;27.27;19.90;;;;;;;7.99;75.44;99440.44;5091852;28;20479;-79
2022/04/21 01:41:29;;;;;;;22.90;18.67;;;;;;;8.14;75.55;99451.00;5097915;28;20387;-80
2022/04/21 01:43:54;;;;;;;23.92;18.48;;;;;;;8.21;75.24;99453.16;5074688;28;20032;-79
2022/04/21 01:46:20;;;;;;;20.85;17.63;;;;;;;8.12;75.14;99444.91;5075093;28;20043;-79
2022/04/21 01:48:46;;;;;;;25.05;18.40;;;;;;;7.90;75.53;99430.44;5075350;28;20506;-82
2022/04/21 01:51:12;;;;;;;24.17;18.77;;;;;;;8.02;75.57;99450.03;5092283;28;20078;-81
2022/04/21 01:53:38;;;;;;;21.38;18.35;;;;;;;8.13;75.66;99438.66;5093073;28;20043;-80
2022/04/21 01:56:04;;;;;;;24.63;19.65;;;;;;;8.26;75.02;99459.00;5108640;28;20411;-80
2022/04/21 01:58:30;;;;;;;25.08;18.83;;;;;;;8.39;74.63;99461.72;5108453;28;20044;-81
2022/04/21 02:00:56;;;;;;;26.17;19.58;;;;;;;8.50;74.30;99467.16;5074791;28;20059;-79
2022/04/21 02:03:22;;;;;;;23.75;19.17;;;;;;;8.50;74.10;99453.84;5075112;28;20044;-80
2022/04/21 02:05:48;;;;;;;23.83;18.60;;;;;;;8.72;74.08;99465.63;5093157;28;20046;-82
2022/04/21 02:08:15;;;;;;;24.77;19.73;;;;;;;8.81;73.33;99465.00;5075186;28;20036;-80
2022/04/21 02:10:41;;;;;;;25.08;19.83;;;;;;;8.85;72.97;99470.97;5091660;28;20127;-81
2022/04/21 02:13:07;;;;;;;25.55;20.15;;;;;;;8.87;72.87;99463.69;5076646;28;20074;-80
2022/04/21 02:15:33;;;;;;;31.17;23.38;;;;;;;8.89;72.46;99472.47;5062078;28;20516;-81
2022/04/21 02:18:03;;;;;;;30.48;23.13;;;;;;;8.84;72.46;99480.78;5078564;28;20093;-80
2022/04/21 02:20:29;;;;;;;26.17;20.17;;;;;;;8.89;72.52;99483.97;5095400;28;20395;-80
2022/04/21 02:22:55;;;;;;;20.17;15.90;;;;;;;8.84;71.96;99478.13;5095208;28;20051;-81
2022/04/21 02:25:20;;;;;;;20.27;15.32;;;;;;;8.75;72.08;99476.09;5094895;28;20044;-82
2022/04/21 02:27:48;;;;;;;22.42;16.55;;;;;;;8.81;72.36;99475.66;5094818;28;20068;-81
2022/04/21 02:30:16;;;;;;;20.83;16.60;;;;;;;8.77;72.35;99463.53;5094951;28;20391;-83
2022/04/21 02:32:42;;;;;;;20.45;16.50;;;;;;;8.82;72.25;99488.03;5078068;28;20116;-81
2022/04/21 02:35:10;;;;;;;19.10;15.15;;;;;;;8.84;72.42;99485.25;5061063;28;20412;-81
2022/04/21 02:37:36;;;;;;;16.75;14.10;;;;;;;8.83;72.76;99479.06;5111607;28;20044;-80
2022/04/21 02:40:07;;;;;;;17.50;14.57;;;;;;;8.87;72.58;99496.53;5078035;28;20086;-80
2022/04/21 02:42:33;;;;;;;19.92;15.25;;;;;;;8.83;72.26;99484.38;5061098;28;20044;-80
2022/04/21 02:45:00;;;;;;;18.13;15.15;;;;;;;8.90;72.42;99501.66;5096067;28;20044;-80
2022/04/21 02:47:27;;;;;;;21.52;16.83;;;;;;;8.96;71.78;99511.91;5094896;28;20046;-84
2022/04/21 02:49:53;;;;;;;21.98;18.00;;;;;;;8.85;71.78;99502.97;5061004;28;20131;-79
2022/04/21 02:52:20;;;;;;;23.60;18.48;;;;;;;8.91;72.07;99508.72;5077415;28;20541;-78
2022/04/21 02:57:32;;;;;;;26.83;19.90;;;;;;;9.04;71.42;99502.50;5094594;28;20056;-79
2022/04/21 03:00:02;;;;;;;23.85;18.48;;;;;;;8.99;71.82;99511.69;5060750;28;20456;-79
2022/04/21 03:02:29;;;;;;;23.85;18.52;;;;;;;8.86;71.99;99499.31;5094453;28;20064;-80
2022/04/21 03:04:54;;;;;;;30.05;21.65;;;;;;;8.91;71.86;99503.38;5095365;28;20032;-79
2022/04/21 03:07:22;;;;;;;23.40;18.02;;;;;;;8.82;72.01;99493.34;5077521;28;21018;-79
2022/04/21 03:09:53;;;;;;;24.30;18.77;;;;;;;8.92;72.22;99505.09;5093864;28;20494;-81
2022/04/21 03:12:21;;;;;;;25.63;19.00;;;;;;;9.09;72.02;99495.03;5095224;28;20051;-80
2022/04/21 03:14:49;;;;;;;24.00;19.20;;;;;;;9.16;71.84;99493.63;5077944;28;20086;-80
2022/04/21 03:17:15;;;;;;;25.85;21.17;;;;;;;9.24;71.62;99504.59;5061532;28;20482;-87
2022/04/21 03:19:41;;;;;;;26.95;22.35;;;;;;;9.33;71.39;99497.75;5093540;28;20036;-80
2022/04/21 03:24:58;;;;;;;30.15;24.10;;;;;;;9.36;70.67;99479.69;5096923;28;20591;-80
2022/04/21 03:27:26;;;;;;;35.20;27.60;;;;;;;9.58;70.60;99496.81;5114324;28;20100;-90
2022/04/21 03:29:52;;;;;;;37.10;28.58;;;;;;;9.60;70.11;99505.56;5079931;28;20039;-80
2022/04/21 03:32:18;;;;;;;28.23;22.65;;;;;;;9.40;69.43;99504.31;5115529;28;20050;-81
2022/04/21 03:34:44;;;;;;;26.63;20.83;;;;;;;9.48;69.62;99513.50;5096893;28;20161;-81
2022/04/21 03:37:14;;;;;;;21.98;16.90;;;;;;;9.53;69.43;99496.31;5115010;28;20402;-82
2022/04/21 03:39:43;;;;;;;21.77;17.13;;;;;;;9.53;69.36;99504.31;5080216;28;20070;-81
2022/04/21 03:42:24;;;;;;;19.92;16.33;;;;;;;9.67;69.39;99509.50;5097112;28;20048;-84
2022/04/21 03:44:53;;;;;;;21.77;17.40;;;;;;;9.76;69.13;99505.28;5114944;28;20365;-83
2022/04/21 03:47:20;;;;;;;21.48;17.67;;;;;;;9.79;68.81;99495.22;5079921;28;20072;-83
2022/04/21 03:49:47;;;;;;;24.13;17.80;;;;;;;9.95;68.53;99486.91;5088036;28;20139;-77
2022/04/21 03:52:14;;;;;;;22.83;18.15;;;;;;;9.98;67.83;99500.88;5093213;28;20054;-81
2022/04/21 03:54:40;;;;;;;23.13;18.48;;;;;;;10.00;67.51;99491.91;5114797;28;20099;-80
2022/04/21 03:57:06;;;;;;;20.17;16.80;;;;;;;9.70;68.32;99490.56;5113441;28;20047;-78
2022/04/21 03:59:34;;;;;;;26.63;20.58;;;;;;;9.68;68.75;99504.03;5096279;28;20040;-80
2022/04/21 04:02:03;;;;;;;29.85;23.50;;;;;;;9.83;68.92;99507.38;5096194;28;20048;-80
2022/04/21 04:04:33;;;;;;;33.53;25.10;;;;;;;9.88;68.56;99505.22;5095925;28;20055;-80
2022/04/21 04:12:34;;;;;;;24.15;19.58;;;;;;;10.60;67.87;99501.56;5113779;28;20046;-76
2022/04/21 04:15:00;;;;;;;24.40;18.90;;;;;;;10.56;66.87;99517.00;5095850;28;20577;-78
2022/04/21 04:17:26;;;;;;;24.35;19.58;;;;;;;10.65;67.11;99520.81;5113126;28;20047;-76
2022/04/21 04:19:53;;;;;;;22.30;18.13;;;;;;;10.75;66.96;99516.41;5113178;28;20052;-79
2022/04/21 04:22:19;;;;;;;19.05;16.33;;;;;;;10.92;66.34;99523.13;5079390;28;20048;-78
2022/04/21 04:24:45;;;;;;;19.73;16.27;;;;;;;10.95;66.03;99514.88;5096029;28;20088;-79
2022/04/21 04:27:12;;;;;;;23.02;19.60;;;;;;;10.88;65.55;99521.69;5096284;28;20044;-79
2022/04/21 04:29:38;;;;;;;25.55;22.00;;;;;;;10.99;65.64;99523.50;5112934;28;20035;-79
2022/04/21 04:32:04;;;;;;;29.13;23.23;;;;;;;11.05;65.45;99534.56;5078741;28;20093;-77
2022/04/21 04:34:30;;;;;;;40.28;25.45;;;;;;;11.11;64.98;99528.75;5112730;28;20455;-79
2022/04/21 04:36:56;;;;;;;28.83;23.60;;;;;;;11.21;64.18;99504.78;5112576;28;20753;-78
2022/04/21 04:39:22;;;;;;;26.83;22.23;;;;;;;11.20;64.12;99511.09;5078914;28;20039;-77
2022/04/21 04:44:34;;;;;;;23.98;20.02;;;;;;;11.32;63.79;99526.19;5112729;28;20413;-78
2022/04/21 04:47:00;;;;;;;26.98;20.77;;;;;;;11.47;63.34;99524.09;5112318;28;20397;-77
2022/04/21 04:49:26;;;;;;;23.75;19.63;;;;;;;11.50;62.70;99531.00;5078161;28;20138;-77
2022/04/21 04:51:52;;;;;;;26.38;20.63;;;;;;;11.39;62.94;99527.38;5078408;28;20040;-79
2022/04/21 04:54:19;;;;;;;27.45;19.58;;;;;;;11.36;63.26;99522.28;5078504;28;20104;-79
2022/04/21 04:56:46;;;;;;;26.02;19.27;;;;;;;11.33;62.70;99517.19;5078762;28;20050;-77
2022/04/21 04:59:13;;;;;;;26.95;20.75;;;;;;;11.21;63.34;99530.66;5095355;28;20051;-78
2022/04/21 05:01:43;;;;;;;27.23;21.38;;;;;;;11.41;63.73;99535.28;5112087;28;20056;-80
2022/04/21 05:04:11;;;;;;;25.23;21.75;;;;;;;11.23;62.63;99520.72;5095580;28;20156;-78
2022/04/21 05:06:39;;;;;;;24.85;19.40;;;;;;;11.54;62.39;99540.50;5078479;28;20044;-79
2022/04/21 05:09:07;;;;;;;25.83;18.42;;;;;;;11.42;61.59;99531.63;5112247;28;20544;-77
2022/04/21 05:11:33;;;;;;;23.33;17.10;;;;;;;11.53;62.11;99522.75;5094695;28;20070;-78
2022/04/21 05:14:01;;;;;;;25.67;18.58;;;;;;;11.38;62.16;99524.81;5078155;28;20074;-80
2022/04/21 05:16:27;;;;;;;23.15;17.42;;;;;;;11.41;61.56;99513.88;5112179;28;20047;-78
2022/04/21 05:18:54;;;;;;;21.55;17.08;;;;;;;11.17;61.97;99522.06;5095517;28;20082;-78
2022/04/21 05:21:20;;;;;;;21.60;18.38;;;;;;;11.26;62.80;99528.50;5112347;28;20138;-78
2022/04/21 05:23:49;;;;;;;21.02;16.30;;;;;;;11.22;62.18;99511.84;5095588;28;20067;-79
2022/04/21 05:26:16;;;;;;;22.00;15.07;;;;;;;11.26;62.38;99518.63;5078211;28;20043;-78
2022/04/21 05:28:45;;;;;;;19.23;15.30;;;;;;;11.30;62.02;99535.31;5095244;28;20047;-78
2022/04/21 05:31:11;;;;;;;19.50;13.95;;;;;;;11.27;61.79;99533.72;5112135;28;20404;-77
2022/04/21 05:33:38;;;;;;;18.92;15.05;;;;;;;11.31;61.63;99526.28;5112596;28;20047;-77
2022/04/21 05:36:05;;;;;;;18.45;14.73;;;;;;;11.56;61.74;99536.72;5113062;28;20490;-79
2022/04/21 05:38:31;;;;;;;21.48;16.45;;;;;;;11.63;61.53;99547.81;5095400;28;20135;-79
2022/04/21 05:40:58;;;;;;;21.40;16.73;;;;;;;11.77;61.93;99539.50;5112386;28;20209;-79
2022/04/21 05:43:50;;;;;;;18.60;13.63;;;;;;;12.20;60.83;99543.16;5078255;28;20047;-80
2022/04/21 05:46:17;;;;;;;21.70;14.32;;;;;;;12.01;59.33;99522.41;5110121;28;20047;-79
2022/04/21 05:48:43;;;;;;;22.52;13.52;;;;;;;12.06;58.98;99536.25;5097386;28;20044;-79
2022/04/21 05:51:10;;;;;;;24.63;15.65;;;;;;;12.10;58.97;99551.09;5098936;28;20569;-79
2022/04/21 05:53:38;;;;;;;24.08;15.13;;;;;;;12.22;59.26;99546.53;5098757;28;20086;-80
2022/04/21 05:56:06;;;;;;;23.60;15.07;;;;;;;12.21;58.54;99534.13;5116638;28;20048;-80
2022/04/21 05:58:32;;;;;;;19.00;14.80;;;;;;;11.97;58.48;99553.13;5099073;28;20071;-78
2022/04/21 06:01:00;;;;;;;25.42;16.17;;;;;;;11.96;59.30;99544.22;5124447;27;20061;-79
2022/04/21 06:03:27;;;;;;;21.80;15.65;;;;;;;12.04;58.34;99554.31;5085108;27;20054;-76
2022/04/21 06:05:53;;;;;;;27.70;16.73;;;;;;;12.17;58.75;99552.28;5137254;27;20058;-78
2022/04/21 06:08:19;;;;;;;25.48;17.50;;;;;;;12.36;58.68;99543.56;5084636;27;20043;-79
2022/04/21 06:10:45;;;;;;;34.28;17.05;;;;;;;12.33;58.20;99555.38;5101673;27;20496;-77
2022/04/21 06:13:15;;;;;;;27.42;17.50;;;;;;;12.42;58.26;99552.94;5084560;27;20126;-77
2022/04/21 06:15:42;;;;;;;26.13;17.05;;;;;;;12.47;57.95;99548.88;5137170;27;20058;-77
2022/04/21 06:18:07;;;;;;;36.88;18.25;;;;;;;12.60;57.68;99551.38;5084740;27;20077;-78
2022/04/21 06:20:35;;;;;;;22.75;14.85;;;;;;;12.74;56.90;99548.34;5084919;27;20451;-78
2022/04/21 06:23:01;;;;;;;24.63;14.95;;;;;;;12.93;56.79;99536.03;5101630;27;20039;-78
2022/04/21 06:25:27;;;;;;;28.98;18.38;;;;;;;13.17;55.81;99541.97;5118540;27;20039;-78
2022/04/21 06:27:53;;;;;;;30.35;16.67;;;;;;;13.23;55.55;99546.81;5118880;27;20446;-79
2022/04/21 06:30:19;;;;;;;21.92;16.60;;;;;;;13.29;55.26;99548.97;5101389;27;20051;-77
2022/04/21 06:32:45;;;;;;;24.77;18.20;;;;;;;13.26;54.55;99554.59;5084539;27;20053;-77
2022/04/21 06:35:12;;;;;;;23.85;18.05;;;;;;;13.29;55.08;99540.91;5136677;27;20042;-78
2022/04/21 06:37:39;;;;;;;32.55;18.92;;;;;;;13.56;55.58;99536.75;5135984;27;20123;-78
2022/04/21 06:40:07;;;;;;;23.60;15.30;;;;;;;13.86;54.51;99530.47;5117693;27;20035;-80
2022/04/21 06:42:35;;;;;;;30.27;21.13;;;;;;;13.81;53.71;99538.94;5100697;27;20470;-77
2022/04/21 06:48:04;;;;;;;32.40;25.27;;;;;;;13.75;53.98;99539.47;5117572;27;20043;-80
2022/04/21 06:50:39;;;;;;;27.05;20.73;;;;;;;13.83;53.58;99519.97;5118069;27;20550;-79
2022/04/21 06:53:07;;;;;;;39.13;26.90;;;;;;;14.05;53.73;99541.22;5136223;27;20051;-79
2022/04/21 06:55:34;;;;;;;49.45;31.15;;;;;;;14.05;52.68;99545.75;5083867;27;20035;-79
2022/04/21 06:58:01;;;;;;;41.22;27.35;;;;;;;14.00;52.27;99526.53;5135982;27;20058;-77
2022/04/21 07:00:27;;;;;;;26.85;17.27;;;;;;;13.89;50.48;99540.09;5099920;27;20141;-80
2022/04/21 07:02:55;;;;;;;17.08;13.35;;;;;;;13.80;50.46;99534.56;5136487;27;20054;-77
2022/04/21 07:05:25;;;;;;;11.02;8.88;;;;;;;13.67;48.74;99530.44;5136315;27;20485;-78
2022/04/21 07:07:51;;;;;;;11.45;7.97;;;;;;;13.62;49.15;99538.06;5117504;27;20046;-79
2022/04/21 07:10:19;;;;;;;10.73;7.95;;;;;;;13.43;49.46;99528.97;5117305;27;20038;-81
2022/04/21 07:12:46;;;;;;;15.15;10.13;;;;;;;13.63;49.94;99524.47;5100711;27;20043;-80
2022/04/21 07:15:12;;;;;;;17.17;9.48;;;;;;;13.50;50.36;99527.44;5100716;27;20087;-81
2022/04/21 07:17:39;;;;;;;14.02;6.70;;;;;;;13.44;48.07;99529.78;5118409;27;20088;-79
2022/04/21 07:20:07;;;;;;;14.43;7.47;;;;;;;13.44;48.98;99513.69;5136332;27;20054;-78
2022/04/21 07:22:34;;;;;;;19.02;7.68;;;;;;;13.43;49.03;99512.00;5101227;27;20031;-77
2022/04/21 07:25:02;;;;;;;14.82;8.02;;;;;;;13.44;49.72;99525.28;5117592;27;20051;-77
2022/04/21 07:27:29;;;;;;;;;;;;;;;13.38;45.99;99511.53;5117946;27;20097;-78
2022/04/21 07:29:56;;;;;;;9.77;4.10;;;;;;;13.17;45.44;99528.53;5101349;27;19920;-78
2022/04/21 07:32:22;;;;;;;14.13;4.50;;;;;;;13.11;47.44;99508.44;5117742;27;20039;-77
2022/04/21 07:34:50;;;;;;;8.60;4.88;;;;;;;13.66;46.97;99513.47;5084010;27;20077;-81
2022/04/21 07:37:15;;;;;;;6.15;3.60;;;;;;;13.91;45.35;99521.97;5101716;27;20071;-79
2022/04/21 07:39:42;;;;;;;11.05;4.13;;;;;;;14.03;44.73;99504.75;5119491;27;20046;-78
2022/04/21 07:42:09;;;;;;;9.75;3.72;;;;;;;14.23;43.40;99522.56;5119475;27;20504;-76
2022/04/21 07:44:36;;;;;;;7.80;3.78;;;;;;;14.30;44.11;99518.31;5101181;27;20031;-79
2022/04/21 07:47:03;;;;;;;9.13;3.00;;;;;;;14.19;41.53;99529.22;5084826;27;20043;-77
2022/04/21 07:49:48;;;;;;;9.32;3.33;;;;;;;14.21;42.13;99529.06;5085021;27;20087;-79
2022/04/21 07:55:17;;;;;;;3.03;2.75;;;;;;;14.89;42.22;99520.94;5118562;27;20047;-78
2022/04/21 07:57:44;;;;;;;3.33;2.60;;;;;;;15.12;41.01;99508.84;5083851;27;20103;-77
2022/04/21 08:00:12;;;;;;;2.75;2.47;;;;;;;15.43;39.74;99514.78;5082810;27;20039;-77
2022/04/21 08:02:43;;;;;;;12.88;2.72;;;;;;;15.36;40.06;99500.22;5083546;27;20386;-76
2022/04/21 08:05:11;;;;;;;5.43;2.40;;;;;;;15.33;38.64;99499.66;5100013;27;20050;-79
2022/04/21 08:07:37;;;;;;;1.90;1.80;;;;;;;15.12;37.59;99498.06;5100614;27;20039;-77
2022/04/21 08:10:04;;;;;;;6.65;2.63;;;;;;;14.56;39.20;99507.00;5117449;27;20035;-77
2022/04/21 08:12:41;;;;;;;2.58;2.05;;;;;;;14.32;39.60;99494.81;5083501;27;20400;-78
2022/04/21 08:15:08;;;;;;;5.25;2.45;;;;;;;14.64;40.24;99503.59;5118075;27;20086;-79
2022/04/21 08:17:36;;;;;;;10.10;2.17;;;;;;;14.70;40.31;99498.47;5100216;27;20132;-78
2022/04/21 08:20:11;;;;;;;6.88;2.33;;;;;;;14.22;41.07;99499.38;5100301;27;20096;-77
2022/04/21 08:22:38;;;;;;;4.38;2.47;;;;;;;14.21;41.29;99497.66;5100153;27;20043;-80
2022/04/21 08:33:18;;;;;;;4.30;2.30;;;;;;;15.45;39.10;99490.38;5135110;27;20382;-77
2022/04/21 08:35:45;;;;;;;7.15;2.08;;;;;;;15.51;38.11;99479.00;5134782;27;20047;-77
2022/04/21 08:38:12;;;;;;;1.58;1.30;;;;;;;15.35;36.58;99489.59;5099173;27;20141;-76
2022/04/21 08:40:45;;;;;;;2.95;1.70;;;;;;;15.46;37.45;99484.00;5134510;27;20054;-78
2022/04/21 08:43:15;;;;;;;4.78;1.73;;;;;;;15.47;36.88;99489.25;5082303;27;20445;-76
2022/04/21 08:45:43;;;;;;;5.65;1.70;;;;;;;15.54;37.31;99481.41;5099034;27;20518;-77
2022/04/21 08:48:11;;;;;;;9.38;1.80;;;;;;;15.39;37.05;99481.06;5082299;27;20513;-78
2022/04/21 08:50:38;;;;;;;3.05;1.50;;;;;;;15.62;37.15;99491.44;5099239;27;20054;-78
2022/04/21 08:53:09;;;;;;;5.15;1.90;;;;;;;15.85;37.06;99473.00;5099339;27;20046;-78
2022/04/21 08:55:35;;;;;;;9.05;1.80;;;;;;;16.14;37.28;99467.38;5099238;27;20047;-77
2022/04/21 08:58:02;;;;;;;6.45;1.67;;;;;;;16.39;36.67;99479.19;5134410;27;20134;-79
2022/04/21 09:00:31;;;;;;;4.88;1.50;;;;;;;16.48;35.71;99473.72;5099091;27;20046;-77
2022/04/21 09:02:58;;;;;;;4.55;1.67;;;;;;;16.28;36.61;99474.91;5098994;27;20131;-77
2022/04/21 09:05:27;;;;;;;3.40;1.67;;;;;;;16.50;36.31;99478.94;5098878;27;20130;-77
2022/04/21 09:07:52;;;;;;;;;;;;;;;16.79;35.91;99483.25;5099668;28;20043;-77
2022/04/21 09:10:20;;;;;;;2.65;1.45;;;;;;;16.92;34.77;99483.63;5098956;28;19966;-79
2022/04/21 09:12:58;;;;;;;4.43;1.63;;;;;;;16.73;35.94;99488.25;5098906;28;20126;-77
2022/04/21 09:15:27;;;;;;;3.40;1.35;;;;;;;16.83;35.36;99495.41;5115807;28;20043;-77
2022/04/21 09:17:56;;;;;;;9.13;1.45;;;;;;;16.96;35.43;99490.41;5081795;28;20035;-79
2022/04/21 09:20:33;;;;;;;9.88;1.45;;;;;;;17.14;35.02;99503.84;5098827;28;20054;-78
2022/04/21 09:23:02;;;;;;;5.60;1.70;;;;;;;17.23;33.92;99495.66;5115426;28;20313;-77
2022/04/21 09:25:32;;;;;;;10.98;1.50;;;;;;;17.08;34.19;99494.56;5098705;28;20584;-79
2022/04/21 09:27:59;;;;;;;2.53;1.10;;;;;;;17.19;33.58;99496.13;5133593;28;20043;-77
2022/04/21 09:30:25;;;;;;;4.75;1.40;;;;;;;17.50;34.15;99482.91;5081390;28;20050;-77
2022/04/21 09:32:56;;;;;;;1.40;1.30;;;;;;;17.86;32.75;99488.94;5115822;28;20513;-77
2022/04/21 09:35:26;;;;;;;7.45;2.15;;;;;;;17.49;32.64;99497.44;5115540;28;20042;-76
2022/04/21 09:37:57;;;;;;;6.78;2.20;;;;;;;17.71;33.70;99486.03;5098366;28;20505;-77
2022/04/21 09:40:25;;;;;;;13.25;1.95;;;;;;;18.06;33.44;99481.38;5098495;28;20047;-77
2022/04/21 09:42:59;;;;;;;2.13;1.55;;;;;;;17.96;32.71;99483.38;5082031;28;20039;-78
2022/04/21 09:48:18;;;;;;;5.88;2.55;;;;;;;17.58;33.29;99474.81;5115043;28;20039;-77
2022/04/21 09:50:49;;;;;;;2.60;2.08;;;;;;;17.66;34.02;99482.09;5097737;28;20054;-78
2022/04/21 09:53:19;;;;;;;4.75;2.17;;;;;;;17.20;35.32;99482.44;5133567;28;20157;-78
2022/04/21 09:55:47;;;;;;;8.55;2.45;;;;;;;17.11;36.30;99478.03;5115492;28;20062;-79
2022/04/21 09:58:13;;;;;;;5.75;2.38;;;;;;;16.74;36.82;99471.06;5081418;28;20416;-76
2022/04/21 10:00:41;;;;;;;4.32;1.70;;;;;;;16.38;37.46;99481.06;5098179;28;20600;-78
2022/04/21 10:03:08;;;;;;;7.03;2.40;;;;;;;16.01;37.86;99459.66;5098233;28;20135;-77
2022/04/21 10:05:36;;;;;;;13.05;2.58;;;;;;;16.34;37.90;99470.75;5114940;28;20046;-78
2022/04/21 10:08:04;;;;;;;8.77;1.88;;;;;;;16.49;37.30;99471.88;5098400;28;20389;-77
2022/04/21 10:10:34;;;;;;;6.70;2.30;;;;;;;16.79;36.55;99472.44;5133835;28;20043;-78
2022/04/21 10:13:01;;;;;;;6.88;2.85;;;;;;;16.68;36.75;99476.22;5115278;28;20043;-77
2022/04/21 10:15:29;;;;;;;15.27;2.20;;;;;;;16.74;36.12;99475.63;5133167;28;20446;-76
2022/04/21 10:17:55;;;;;;;7.78;1.70;;;;;;;16.65;36.12;99476.53;5115127;28;20043;-77
2022/04/21 10:20:29;;;;;;;4.22;1.48;;;;;;;16.35;36.62;99485.91;5097869;28;20045;-78
2022/04/21 10:22:56;;;;;;;5.78;1.40;;;;;;;16.43;36.39;99483.28;5115737;28;20043;-77
2022/04/21 10:25:36;;;;;;;7.80;1.60;;;;;;;16.92;36.91;99483.63;5115208;28;20092;-80
2022/04/21 10:28:37;;;;;;;2.63;1.38;;;;;;;17.16;35.66;99486.50;5115234;28;20036;-77
2022/04/21 10:31:29;;;;;;;4.65;1.50;;;;;;;17.10;35.23;99481.72;5081171;28;20039;-77
2022/04/21 10:34:07;;;;;;;3.90;1.65;;;;;;;17.18;36.23;99478.22;5098178;28;20046;-78
2022/04/21 10:36:47;;;;;;;4.60;1.55;;;;;;;17.09;34.94;99484.59;5101857;27;20070;-78
2022/04/21 10:39:19;;;;;;;3.70;1.20;;;;;;;16.84;35.20;99480.91;5136779;27;20039;-78
2022/04/21 10:41:45;;;;;;;3.78;1.67;;;;;;;16.90;35.58;99481.13;5118535;27;20046;-77
2022/04/21 10:44:27;;;;;;;12.20;2.08;;;;;;;16.98;34.93;99483.00;5136775;27;20043;-77
2022/04/21 10:47:30;;;;;;;8.50;1.40;;;;;;;16.60;35.50;99482.41;5101438;27;20039;-77
2022/04/21 10:50:20;;;;;;;10.48;1.25;;;;;;;16.72;35.96;99473.03;5101213;27;20078;-77
2022/04/21 10:58:33;;;;;;;2.75;1.45;;;;;;;16.87;35.78;99469.78;5136795;27;20039;-77
2022/04/21 11:01:19;;;;;;;2.53;1.50;;;;;;;16.86;35.58;99476.19;5114244;28;20475;-76
2022/04/21 11:04:04;;;;;;;4.38;1.50;;;;;;;16.64;36.21;99469.44;5115541;28;20048;-78
2022/04/21 11:06:44;;;;;;;1.98;1.73;;;;;;;16.56;36.36;99462.13;5114158;28;20043;-77
2022/04/21 11:09:35;;;;;;;6.72;1.40;;;;;;;16.59;36.14;99464.53;5114799;28;20044;-78
2022/04/21 11:12:04;;;;;;;4.93;1.80;;;;;;;16.09;36.81;99464.28;5116098;28;20168;-77
2022/04/21 11:14:32;;;;;;;7.15;1.70;;;;;;;15.91;36.60;99472.38;5080816;28;20055;-77
2022/04/21 11:16:59;;;;;;;5.57;2.25;;;;;;;15.86;37.22;99474.69;5097705;28;20048;-77
2022/04/21 11:19:28;;;;;;;6.53;1.70;;;;;;;16.02;37.12;99472.13;5114924;28;20051;-76
2022/04/21 11:21:56;;;;;;;2.80;1.40;;;;;;;16.21;36.79;99469.31;5080649;28;20084;-77
2022/04/21 11:24:22;;;;;;;8.55;1.65;;;;;;;16.36;35.93;99471.41;5115329;28;20131;-78
2022/04/21 11:26:55;;;;;;;3.75;1.35;;;;;;;16.26;36.09;99466.97;5114438;28;20047;-77
2022/04/21 11:29:21;;;;;;;6.43;1.40;;;;;;;16.39;35.96;99477.34;5097393;28;20130;-77
2022/04/21 11:31:47;;;;;;;4.72;1.35;;;;;;;16.12;36.28;99464.81;5115188;28;20100;-76
2022/04/21 11:34:24;;;;;;;3.40;1.20;;;;;;;15.50;37.24;99475.47;5096855;28;20039;-78
2022/04/21 11:36:54;;;;;;;3.63;1.60;;;;;;;15.53;37.78;99466.22;5097184;28;20047;-76
2022/04/21 11:39:21;;;;;;;12.32;1.60;;;;;;;15.42;38.06;99477.19;5097118;28;20050;-78
2022/04/21 11:41:48;;;;;;;6.78;1.60;;;;;;;15.39;38.70;99472.16;5096905;28;20044;-78
2022/04/21 11:44:21;;;;;;;2.85;1.40;;;;;;;15.40;38.35;99473.81;5114492;28;20067;-77
2022/04/21 11:46:48;;;;;;;3.10;1.63;;;;;;;15.53;38.39;99472.47;5114881;28;20077;-79
2022/04/21 11:49:14;;;;;;;4.90;2.03;;;;;;;15.62;37.77;99478.81;5096513;28;20055;-80
2022/04/21 11:51:41;;;;;;;10.95;2.45;;;;;;;15.61;37.75;99470.84;5079459;28;20512;-77
2022/04/21 11:54:09;;;;;;;6.25;3.25;;;;;;;15.40;38.28;99469.28;5079667;28;20502;-78
2022/04/21 11:56:36;;;;;;;7.13;2.67;;;;;;;15.39;38.61;99480.22;5097279;28;20051;-78
2022/04/21 11:59:07;;;;;;;12.80;2.80;;;;;;;15.13;39.41;99467.44;5096507;28;20547;-78
2022/04/21 12:07:04;;;;;;;6.60;1.77;;;;;;;14.92;37.70;99474.91;5095998;28;20046;-77
2022/04/21 12:09:35;;;;;;;13.02;2.00;;;;;;;15.12;37.65;99481.91;5113382;28;20122;-78
2022/04/21 12:12:03;;;;;;;10.02;1.88;;;;;;;15.20;36.76;99473.94;5113226;28;20071;-77
2022/04/21 12:14:31;;;;;;;13.83;1.87;;;;;;;14.95;36.26;99480.00;5096689;28;20052;-78
2022/04/21 12:16:59;;;;;;;10.00;2.20;;;;;;;14.76;36.75;99481.75;5096177;28;20070;-77
2022/04/21 12:19:38;;;;;;;8.77;1.77;;;;;;;14.85;36.48;99487.25;5113477;28;20050;-79
2022/04/21 12:22:09;;;;;;;3.92;1.80;;;;;;;14.91;36.19;99474.06;5096244;28;20118;-78